Gilford, United Kingdom
Current Conditions -  °F | °C
As of 1:50 AM on Wednesday 26 Nov 2014 (Local Time) from EGAA Reporting Station
Few Clouds Few Clouds  
Wind Chill: 36°   Ceiling: Unl
Heat Index: 39°   Visibility: 6mi
Dew Point: 37°   Wind: 5mph
Humidity: 93%   Direction: 70°ENE
Pressure: 30.03"   Gusts: NA
Location:  54.37°N, 6.36°W
Report Text: EGAA 260150Z 07004KT 9999 FEW043 04/03 Q1017
Loading
Personal Weather Stations






























Interactive Weather Map New forecast layout! Learn more

10-Day Weather Forecast

Advertisements
Track Severe Weather on mobile